createdAt,value
2019-03-20T00:02:28.407Z,99.90
2019-03-20T00:04:56.962Z,99.90
2019-03-20T00:07:25.407Z,99.90
2019-03-20T00:09:54.162Z,99.90
2019-03-20T00:12:23.056Z,99.90
2019-03-20T00:14:51.849Z,99.90
2019-03-20T00:17:20.750Z,99.90
2019-03-20T00:19:49.299Z,99.90
2019-03-20T00:22:17.746Z,99.90
2019-03-20T00:24:46.510Z,99.90
2019-03-20T00:27:14.962Z,99.90
2019-03-20T00:29:43.793Z,99.90
2019-03-20T00:32:12.675Z,99.90
2019-03-20T00:34:41.159Z,99.90
2019-03-20T00:37:10.067Z,99.90
2019-03-20T00:39:38.551Z,99.90
2019-03-20T00:42:07.083Z,99.90
2019-03-20T00:44:35.923Z,99.90
2019-03-20T00:47:04.375Z,99.90
2019-03-20T00:49:33.206Z,99.90
2019-03-20T00:52:01.667Z,99.90
2019-03-20T00:54:30.487Z,99.90
2019-03-20T00:56:58.943Z,99.90
2019-03-20T00:59:27.419Z,99.90
2019-03-20T01:01:55.884Z,99.90
2019-03-20T01:04:24.735Z,99.90
2019-03-20T01:06:53.527Z,99.90
2019-03-20T01:09:22.013Z,99.90
2019-03-20T01:11:50.531Z,99.90
2019-03-20T01:14:19.300Z,99.90
2019-03-20T01:16:48.088Z,99.90
2019-03-20T01:19:16.578Z,99.90
2019-03-20T01:21:45.363Z,99.90
2019-03-20T01:24:13.842Z,99.90
2019-03-20T01:26:42.645Z,99.90
2019-03-20T01:29:11.108Z,99.90
2019-03-20T01:31:39.921Z,99.90
2019-03-20T01:34:08.716Z,99.90
2019-03-20T01:36:37.199Z,99.90
2019-03-20T01:39:07.230Z,99.90
2019-03-20T01:41:38.305Z,99.90
2019-03-20T01:44:05.884Z,99.90
2019-03-20T01:46:34.628Z,99.90
2019-03-20T01:49:03.414Z,99.90
2019-03-20T01:51:31.895Z,99.90
2019-03-20T01:54:00.346Z,99.90
2019-03-20T01:56:28.831Z,99.90
2019-03-20T01:58:57.563Z,99.90
2019-03-20T02:01:26.355Z,99.90
2019-03-20T02:03:54.889Z,99.90
2019-03-20T02:06:23.435Z,99.90
2019-03-20T02:08:52.223Z,99.90
2019-03-20T02:11:21.017Z,99.90
2019-03-20T02:13:49.903Z,99.90
2019-03-20T02:16:18.383Z,99.90
2019-03-20T02:18:46.841Z,99.90
2019-03-20T02:21:15.319Z,99.90
2019-03-20T02:23:43.815Z,99.90
2019-03-20T02:26:12.642Z,99.90
2019-03-20T02:28:41.440Z,99.90
2019-03-20T02:31:09.983Z,99.90
2019-03-20T02:33:38.823Z,99.90
2019-03-20T02:36:07.296Z,99.90
2019-03-20T02:38:36.108Z,99.90
2019-03-20T02:41:04.649Z,99.90
2019-03-20T02:43:33.187Z,99.90
2019-03-20T02:46:02.171Z,99.90
2019-03-20T02:48:30.965Z,99.90
2019-03-20T02:50:59.859Z,99.90
2019-03-20T02:53:28.411Z,99.90
2019-03-20T02:55:56.972Z,99.90
2019-03-20T02:58:25.434Z,99.90
2019-03-20T03:00:54.312Z,99.90
2019-03-20T03:03:23.104Z,99.90
2019-03-20T03:06:05.641Z,99.90
2019-03-20T03:08:22.088Z,99.90
2019-03-20T03:10:50.632Z,99.90
2019-03-20T03:13:19.405Z,99.90
2019-03-20T03:15:47.963Z,99.90
2019-03-20T03:18:16.488Z,99.90
2019-03-20T03:20:44.960Z,99.90
2019-03-20T03:23:13.425Z,99.90
2019-03-20T03:25:42.424Z,99.90
2019-03-20T03:28:10.981Z,99.90
2019-03-20T03:30:39.469Z,99.90
2019-03-20T03:33:07.983Z,99.90
2019-03-20T03:35:36.518Z,99.90
2019-03-20T03:38:05.289Z,99.90
2019-03-20T03:40:34.072Z,99.90
2019-03-20T03:43:02.606Z,99.90
2019-03-20T03:45:31.135Z,99.90
2019-03-20T03:47:59.697Z,99.90
2019-03-20T03:50:28.533Z,99.90
2019-03-20T03:52:57.084Z,99.90
2019-03-20T03:55:25.546Z,99.90
2019-03-20T03:57:54.603Z,99.90
2019-03-20T04:00:23.393Z,99.90
2019-03-20T04:02:52.292Z,99.90
2019-03-20T04:05:21.081Z,99.90
2019-03-20T04:07:49.880Z,99.90
2019-03-20T04:10:18.893Z,99.90
2019-03-20T04:12:47.501Z,99.90
2019-03-20T04:15:16.785Z,99.90
2019-03-20T04:17:45.397Z,99.90
2019-03-20T04:20:18.130Z,99.90
2019-03-20T04:22:46.659Z,99.90
2019-03-20T04:25:15.392Z,99.90
2019-03-20T04:27:44.751Z,99.90
2019-03-20T04:30:17.509Z,99.90
2019-03-20T04:32:46.120Z,99.90
2019-03-20T04:35:15.197Z,99.90
2019-03-20T04:37:43.752Z,99.90
2019-03-20T04:40:15.032Z,99.90
2019-03-20T04:42:43.919Z,99.90
2019-03-20T04:45:13.769Z,99.90
2019-03-20T04:47:42.327Z,99.90
2019-03-20T04:50:13.274Z,99.90
2019-03-20T04:52:41.832Z,99.90
2019-03-20T04:55:10.961Z,99.90
2019-03-20T04:57:39.516Z,99.90
2019-03-20T05:00:16.765Z,99.90
2019-03-20T05:02:45.631Z,99.90
2019-03-20T05:05:14.355Z,99.90
2019-03-20T05:07:42.883Z,99.90
2019-03-20T05:10:13.463Z,99.90
2019-03-20T05:12:42.244Z,99.90
2019-03-20T05:15:14.738Z,99.90
2019-03-20T05:17:43.591Z,99.90
2019-03-20T05:20:21.814Z,99.90
2019-03-20T05:22:50.295Z,99.90
2019-03-20T05:25:19.083Z,99.90
2019-03-20T05:27:47.875Z,99.90
2019-03-20T05:30:16.605Z,99.90
2019-03-20T05:32:45.155Z,99.90
2019-03-20T05:35:13.958Z,99.90
2019-03-20T05:37:42.847Z,99.90
2019-03-20T05:40:15.570Z,99.90
2019-03-20T05:42:44.128Z,99.90
2019-03-20T05:45:19.492Z,99.90
2019-03-20T05:47:48.355Z,99.90
2019-03-20T05:50:17.722Z,99.90
2019-03-20T05:52:46.565Z,99.90
2019-03-20T05:55:15.159Z,99.90
2019-03-20T05:57:44.035Z,99.90
2019-03-20T06:00:15.692Z,99.90
2019-03-20T06:02:44.483Z,99.90
2019-03-20T06:05:13.380Z,99.90
2019-03-20T06:07:42.185Z,99.90
2019-03-20T06:10:12.862Z,99.90
2019-03-20T06:12:42.187Z,99.90
2019-03-20T06:15:10.961Z,99.90
2019-03-20T06:17:39.420Z,99.90
2019-03-20T06:20:15.034Z,99.90
2019-03-20T06:22:43.551Z,99.90
2019-03-20T06:25:13.757Z,99.90
2019-03-20T06:27:42.650Z,99.90
2019-03-20T06:30:16.086Z,99.90
2019-03-20T06:32:44.778Z,99.90
2019-03-20T06:35:13.735Z,99.90
2019-03-20T06:37:42.194Z,99.90
2019-03-20T06:40:12.886Z,99.90
2019-03-20T06:42:41.751Z,99.90
2019-03-20T06:45:20.875Z,99.90
2019-03-20T06:47:50.639Z,99.90
2019-03-20T06:50:23.070Z,97.40
2019-03-20T06:52:51.595Z,92.60
2019-03-20T06:55:20.451Z,92.30
2019-03-20T06:57:49.232Z,93.10
2019-03-20T07:00:23.958Z,91.60
2019-03-20T07:02:53.167Z,90.10
2019-03-20T07:05:57.878Z,85.50
2019-03-20T07:08:29.743Z,83.30
2019-03-20T07:11:06.725Z,90.30
2019-03-20T07:13:35.615Z,91.60
2019-03-20T07:16:05.732Z,90.40
2019-03-20T07:18:34.535Z,90.00
2019-03-20T07:21:03.428Z,92.60
2019-03-20T07:23:31.885Z,95.10
2019-03-20T07:26:00.617Z,96.50
2019-03-20T07:31:57.301Z,93.40
2019-03-20T07:34:26.130Z,91.30
2019-03-20T07:36:54.623Z,89.60
2019-03-20T07:39:23.141Z,89.70
2019-03-20T07:41:53.127Z,85.40
2019-03-20T07:44:21.594Z,87.50
2019-03-20T07:46:50.047Z,93.90
2019-03-20T07:49:18.887Z,92.00
2019-03-20T07:51:47.679Z,90.20
2019-03-20T07:54:16.143Z,91.40
2019-03-20T07:56:44.594Z,87.30
2019-03-20T07:59:13.063Z,88.70
2019-03-20T08:01:41.511Z,86.80
2019-03-20T08:04:09.969Z,83.50
2019-03-20T08:06:38.511Z,81.10
2019-03-20T08:09:08.012Z,81.80
2019-03-20T08:11:36.487Z,85.60
2019-03-20T08:14:05.009Z,81.40
2019-03-20T08:16:33.550Z,80.30
2019-03-20T08:19:02.000Z,82.40
2019-03-20T08:21:30.731Z,78.80
2019-03-20T08:23:59.182Z,78.00
2019-03-20T08:26:27.652Z,82.10
2019-03-20T08:28:56.099Z,80.30
2019-03-20T08:31:24.885Z,76.10
2019-03-20T08:33:53.335Z,77.40
2019-03-20T08:36:21.803Z,75.10
2019-03-20T08:38:50.247Z,75.00
2019-03-20T08:41:18.716Z,69.80
2019-03-20T08:43:47.163Z,70.30
2019-03-20T08:46:34.973Z,72.90
2019-03-20T08:49:03.820Z,71.30
2019-03-20T08:51:32.723Z,70.60
2019-03-20T08:54:01.172Z,69.70
2019-03-20T08:56:31.035Z,66.90
2019-03-20T08:58:59.485Z,66.70
2019-03-20T09:01:29.140Z,61.80
2019-03-20T09:03:58.021Z,64.50
2019-03-20T09:06:26.558Z,63.40
2019-03-20T09:08:55.299Z,65.20
2019-03-20T09:11:23.762Z,69.00
2019-03-20T09:13:52.579Z,67.60
2019-03-20T09:16:21.121Z,68.90
2019-03-20T09:18:49.682Z,63.60
2019-03-20T09:21:18.161Z,55.80
2019-03-20T09:23:46.695Z,55.40
2019-03-20T09:26:15.164Z,60.40
2019-03-20T09:28:43.879Z,58.10
2019-03-20T09:31:12.346Z,55.30
2019-03-20T09:33:41.135Z,55.70
2019-03-20T09:36:09.823Z,47.70
2019-03-20T09:38:43.509Z,52.10
2019-03-20T09:41:09.195Z,48.60
2019-03-20T09:43:37.991Z,50.70
2019-03-20T09:46:06.800Z,47.90
2019-03-20T09:48:35.255Z,48.40
2019-03-20T09:51:03.729Z,52.60
2019-03-20T09:53:32.263Z,48.50
2019-03-20T09:56:01.030Z,52.40
2019-03-20T09:58:29.502Z,51.30
2019-03-20T10:00:57.980Z,47.40
2019-03-20T10:03:26.519Z,49.70
2019-03-20T10:05:54.975Z,46.60
2019-03-20T10:08:23.767Z,42.50
2019-03-20T10:10:52.562Z,40.00
2019-03-20T10:13:21.035Z,42.70
2019-03-20T10:15:49.835Z,42.60
2019-03-20T10:18:18.563Z,42.30
2019-03-20T10:20:47.022Z,44.20
2019-03-20T10:23:15.907Z,46.40
2019-03-20T10:25:45.103Z,40.80
2019-03-20T10:28:13.767Z,34.70
2019-03-20T10:30:42.491Z,36.90
2019-03-20T10:33:11.294Z,40.30
2019-03-20T10:35:49.639Z,36.40
2019-03-20T10:38:10.015Z,38.80
2019-03-20T10:40:38.891Z,39.40
2019-03-20T10:43:07.366Z,34.10
2019-03-20T10:45:36.163Z,32.30
2019-03-20T10:48:04.962Z,35.20
2019-03-20T10:50:33.532Z,36.10
2019-03-20T10:53:02.343Z,35.20
2019-03-20T10:55:31.239Z,32.50
2019-03-20T10:58:00.034Z,30.90
2019-03-20T11:00:29.698Z,29.00
2019-03-20T11:02:58.165Z,35.10
2019-03-20T11:05:26.922Z,33.60
2019-03-20T11:07:55.405Z,42.70
2019-03-20T11:10:27.691Z,35.30
2019-03-20T11:12:56.499Z,38.30
2019-03-20T11:15:25.699Z,35.30
2019-03-20T11:17:54.246Z,34.90
2019-03-20T11:20:24.096Z,38.50
2019-03-20T11:22:52.641Z,30.20
2019-03-20T11:25:28.530Z,31.90
2019-03-20T11:27:57.311Z,31.50
2019-03-20T11:30:29.715Z,30.30
2019-03-20T11:32:58.580Z,32.00
2019-03-20T11:35:28.503Z,34.90
2019-03-20T11:37:57.396Z,34.90
2019-03-20T11:40:32.436Z,28.70
2019-03-20T11:43:00.980Z,29.10
2019-03-20T11:45:30.837Z,28.30
2019-03-20T11:47:59.303Z,33.00
2019-03-20T11:50:36.396Z,27.80
2019-03-20T11:53:06.003Z,27.30
2019-03-20T11:55:36.312Z,27.80
2019-03-20T11:58:06.032Z,27.20
2019-03-20T12:00:34.947Z,28.00
2019-03-20T12:03:03.487Z,29.80
2019-03-20T12:05:31.939Z,28.50
2019-03-20T12:08:00.716Z,27.80
2019-03-20T12:10:33.744Z,34.90
2019-03-20T12:13:02.608Z,29.80
2019-03-20T12:15:31.489Z,29.30
2019-03-20T12:17:59.955Z,33.10
2019-03-20T12:20:28.669Z,28.90
2019-03-20T12:22:57.212Z,28.80
2019-03-20T12:25:34.751Z,30.10
2019-03-20T12:28:03.357Z,27.00
2019-03-20T12:30:36.924Z,25.80
2019-03-20T12:33:06.450Z,26.80
2019-03-20T12:35:46.907Z,28.60
2019-03-20T12:38:15.613Z,27.30
2019-03-20T12:40:44.211Z,26.90
2019-03-20T12:43:12.767Z,27.50
2019-03-20T12:45:42.699Z,31.80
2019-03-20T12:48:13.935Z,31.20
2019-03-20T12:50:42.736Z,27.30
2019-03-20T12:53:14.495Z,26.40
2019-03-20T12:55:44.148Z,29.00
2019-03-20T12:58:12.602Z,33.60
2019-03-20T13:00:41.381Z,32.00
2019-03-20T13:03:09.839Z,29.20
2019-03-20T13:05:38.311Z,29.00
2019-03-20T13:08:06.788Z,30.80
2019-03-20T13:10:35.304Z,27.50
2019-03-20T13:13:04.392Z,30.40
2019-03-20T13:15:33.616Z,29.90
2019-03-20T13:18:02.524Z,29.20
2019-03-20T13:20:31.321Z,27.60
2019-03-20T13:23:12.188Z,29.20
2019-03-20T13:25:42.210Z,29.20
2019-03-20T13:28:10.654Z,31.80
2019-03-20T13:30:57.297Z,26.00
2019-03-20T13:33:26.394Z,25.70
2019-03-20T13:35:56.578Z,24.90
2019-03-20T13:38:25.404Z,24.70
2019-03-20T13:40:54.203Z,24.40
2019-03-20T13:43:22.650Z,24.60
2019-03-20T13:45:51.489Z,27.10
2019-03-20T13:48:20.011Z,27.10
2019-03-20T13:50:48.481Z,28.90
2019-03-20T13:53:16.949Z,28.60
2019-03-20T13:55:45.486Z,25.90
2019-03-20T13:58:13.946Z,27.30
2019-03-20T14:00:42.704Z,25.10
2019-03-20T14:03:11.160Z,25.60
2019-03-20T14:05:39.978Z,25.70
2019-03-20T14:08:08.434Z,25.30
2019-03-20T14:10:49.454Z,27.70
2019-03-20T14:13:07.518Z,28.20
2019-03-20T14:15:36.022Z,29.40
2019-03-20T14:18:04.819Z,24.50
2019-03-20T14:20:33.558Z,24.10
2019-03-20T14:23:02.014Z,26.10
2019-03-20T14:25:30.478Z,26.10
2019-03-20T14:27:59.219Z,27.40
2019-03-20T14:30:34.111Z,26.90
2019-03-20T14:33:02.566Z,28.30
2019-03-20T14:35:32.371Z,23.00
2019-03-20T14:38:01.963Z,26.50
2019-03-20T14:40:36.279Z,28.30
2019-03-20T14:43:02.860Z,29.00
2019-03-20T14:45:32.743Z,27.10
2019-03-20T14:48:01.257Z,25.00
2019-03-20T14:50:31.147Z,23.60
2019-03-20T14:52:59.667Z,27.60
2019-03-20T14:55:28.209Z,25.40
2019-03-20T14:57:57.012Z,26.60
2019-03-20T15:00:29.519Z,25.90
2019-03-20T15:02:58.490Z,25.90
2019-03-20T15:05:27.279Z,24.80
2019-03-20T15:07:55.735Z,24.00
2019-03-20T15:10:27.950Z,21.60
2019-03-20T15:12:56.738Z,23.10
2019-03-20T15:15:43.931Z,23.00
2019-03-20T15:18:12.746Z,21.30
2019-03-20T15:20:41.281Z,23.10
2019-03-20T15:23:10.140Z,24.10
2019-03-20T15:25:40.211Z,23.80
2019-03-20T15:28:09.037Z,26.10
2019-03-20T15:30:37.583Z,29.20
2019-03-20T15:33:06.040Z,31.20
2019-03-20T15:35:34.580Z,28.70
2019-03-20T15:38:03.031Z,27.00
2019-03-20T15:40:31.771Z,26.60
2019-03-20T15:43:00.559Z,28.40
2019-03-20T15:45:29.351Z,28.10
2019-03-20T15:47:58.140Z,27.50
2019-03-20T15:50:27.811Z,26.40
2019-03-20T15:52:56.963Z,27.20
2019-03-20T15:55:30.905Z,27.80
2019-03-20T15:57:59.977Z,26.80
2019-03-20T16:00:28.587Z,27.00
2019-03-20T16:03:19.917Z,25.30
2019-03-20T16:05:48.752Z,23.50
2019-03-20T16:08:17.544Z,25.80
2019-03-20T16:10:46.439Z,28.00
2019-03-20T16:13:15.895Z,36.60
2019-03-20T16:15:44.364Z,37.80
2019-03-20T16:18:12.812Z,36.40
2019-03-20T16:20:41.283Z,40.30
2019-03-20T16:23:09.736Z,41.00
2019-03-20T16:25:38.195Z,41.70
2019-03-20T16:28:06.975Z,42.50
2019-03-20T16:30:35.418Z,45.40
2019-03-20T16:33:04.064Z,49.90
2019-03-20T16:35:32.836Z,49.60
2019-03-20T16:38:01.385Z,52.50
2019-03-20T16:40:36.367Z,53.80
2019-03-20T16:43:05.371Z,56.60
2019-03-20T16:45:34.959Z,58.00
2019-03-20T16:48:04.558Z,59.90
2019-03-20T16:50:33.371Z,62.90
2019-03-20T16:53:02.273Z,65.10
2019-03-20T16:55:30.714Z,63.80
2019-03-20T16:57:59.201Z,64.20
2019-03-20T17:00:29.671Z,64.00
2019-03-20T17:02:59.993Z,64.00
2019-03-20T17:05:29.378Z,65.00
2019-03-20T17:07:57.924Z,67.30
2019-03-20T17:10:28.019Z,68.00
2019-03-20T17:12:56.484Z,68.40
2019-03-20T17:15:27.334Z,68.80
2019-03-20T17:17:55.870Z,72.10
2019-03-20T17:20:24.620Z,74.60
2019-03-20T17:22:53.416Z,72.90
2019-03-20T17:25:21.871Z,73.30
2019-03-20T17:27:50.685Z,75.70
2019-03-20T17:30:28.183Z,74.60
2019-03-20T17:32:56.720Z,78.80
2019-03-20T17:35:25.560Z,79.40
2019-03-20T17:37:54.035Z,81.00
2019-03-20T17:40:24.066Z,80.90
2019-03-20T17:42:52.796Z,81.60
2019-03-20T17:45:22.874Z,82.50
2019-03-20T17:47:51.607Z,83.10
2019-03-20T17:50:27.932Z,83.50
2019-03-20T17:52:57.751Z,84.20
2019-03-20T17:55:26.731Z,83.70
2019-03-20T17:57:55.203Z,85.00
2019-03-20T18:00:39.787Z,86.90
2019-03-20T18:03:08.395Z,89.20
2019-03-20T18:05:37.482Z,88.20
2019-03-20T18:08:06.962Z,87.90
2019-03-20T18:10:35.774Z,88.90
2019-03-20T18:13:05.895Z,89.80
2019-03-20T18:15:34.420Z,90.00
2019-03-20T18:18:02.962Z,90.40
2019-03-20T18:20:31.410Z,90.90
2019-03-20T18:22:59.891Z,91.00
2019-03-20T18:25:28.415Z,91.00
2019-03-20T18:27:57.355Z,90.80
2019-03-20T18:30:28.119Z,91.20
2019-03-20T18:32:56.598Z,91.20
2019-03-20T18:35:25.115Z,91.40
2019-03-20T18:37:53.935Z,91.30
2019-03-20T18:40:28.715Z,91.40
2019-03-20T18:42:57.196Z,91.90
2019-03-20T18:45:26.459Z,92.10
2019-03-20T18:47:55.169Z,92.40
2019-03-20T18:50:24.260Z,92.60
2019-03-20T18:52:53.245Z,92.50
2019-03-20T18:55:22.133Z,92.60
2019-03-20T18:57:50.750Z,92.40
2019-03-20T19:00:26.450Z,92.60
2019-03-20T19:03:03.887Z,92.90
2019-03-20T19:05:38.498Z,93.50
2019-03-20T19:08:07.384Z,93.60
2019-03-20T19:10:37.209Z,93.70
2019-03-20T19:13:05.888Z,94.00
2019-03-20T19:15:34.336Z,94.00
2019-03-20T19:18:02.894Z,93.80
2019-03-20T19:20:31.414Z,93.80
2019-03-20T19:23:00.156Z,93.90
2019-03-20T19:25:29.033Z,94.30
2019-03-20T19:27:57.585Z,94.20
2019-03-20T19:30:27.643Z,94.50
2019-03-20T19:32:56.163Z,94.50
2019-03-20T19:35:25.026Z,94.50
2019-03-20T19:37:53.818Z,94.90
2019-03-20T19:40:22.995Z,94.90
2019-03-20T19:42:51.452Z,95.30
2019-03-20T19:45:20.024Z,95.60
2019-03-20T19:47:48.897Z,96.00
2019-03-20T19:50:24.178Z,95.80
2019-03-20T19:52:52.692Z,95.90
2019-03-20T19:55:21.165Z,95.50
2019-03-20T19:57:49.611Z,95.50
2019-03-20T20:00:28.918Z,95.80
2019-03-20T20:02:57.374Z,95.90
2019-03-20T20:05:27.115Z,96.40
2019-03-20T20:07:55.571Z,96.70
2019-03-20T20:10:24.038Z,96.60
2019-03-20T20:12:52.775Z,96.50
2019-03-20T20:15:31.754Z,96.20
2019-03-20T20:18:00.214Z,96.60
2019-03-20T20:20:37.012Z,96.70
2019-03-20T20:23:05.603Z,96.70
2019-03-20T20:25:34.072Z,96.50
2019-03-20T20:28:02.933Z,96.80
2019-03-20T20:30:31.827Z,96.90
2019-03-20T20:33:00.620Z,97.20
2019-03-20T20:35:29.409Z,97.20
2019-03-20T20:37:57.932Z,97.20
2019-03-20T20:40:28.000Z,97.80
2019-03-20T20:42:56.447Z,98.10
2019-03-20T20:45:24.929Z,98.30
2019-03-20T20:47:53.709Z,98.30
2019-03-20T20:50:22.325Z,98.00
2019-03-20T20:52:50.842Z,97.90
2019-03-20T20:55:20.730Z,97.80
2019-03-20T20:57:49.670Z,98.00
2019-03-20T21:00:22.095Z,98.20
2019-03-20T21:02:51.043Z,98.00
2019-03-20T21:05:19.583Z,97.90
2019-03-20T21:07:48.047Z,98.30
2019-03-20T21:10:17.681Z,98.50
2019-03-20T21:12:55.516Z,98.50
2019-03-20T21:15:22.376Z,98.50
2019-03-20T21:18:12.309Z,98.80
2019-03-20T21:20:42.470Z,98.80
2019-03-20T21:23:38.384Z,98.50
2019-03-20T21:26:22.267Z,98.80
2019-03-20T21:29:26.867Z,99.00
2019-03-20T21:32:04.120Z,98.80
2019-03-20T21:35:00.975Z,98.80
2019-03-20T21:37:38.048Z,99.10
2019-03-20T21:40:09.716Z,99.50
2019-03-20T21:43:14.343Z,99.10
2019-03-20T21:45:55.367Z,99.20
2019-03-20T21:48:24.162Z,99.10
2019-03-20T21:50:56.027Z,99.10
2019-03-20T21:53:30.400Z,99.50
2019-03-20T21:56:16.469Z,99.40
2019-03-20T21:58:53.615Z,99.30
2019-03-20T22:01:42.054Z,99.50
2019-03-20T22:04:10.503Z,99.10
2019-03-20T22:07:15.935Z,99.20
2019-03-20T22:09:54.389Z,99.30
2019-03-20T22:12:44.165Z,99.70
2019-03-20T22:15:40.272Z,99.90
2019-03-20T22:18:45.211Z,99.90
2019-03-20T22:21:22.505Z,99.90
2019-03-20T22:24:22.782Z,99.70
2019-03-20T22:26:59.860Z,99.50
2019-03-20T22:29:28.755Z,99.50
2019-03-20T22:32:12.801Z,99.50
2019-03-20T22:34:53.672Z,99.90
2019-03-20T22:37:22.148Z,99.90
2019-03-20T22:40:10.902Z,99.50
2019-03-20T22:43:11.424Z,99.90
2019-03-20T22:45:59.229Z,99.90
2019-03-20T22:48:47.687Z,99.90
2019-03-20T22:51:39.095Z,99.90
2019-03-20T22:54:44.096Z,99.90
2019-03-20T22:57:15.651Z,99.90
2019-03-20T22:59:44.476Z,99.90
2019-03-20T23:02:32.794Z,99.90
2019-03-20T23:05:01.595Z,99.90
2019-03-20T23:07:32.996Z,99.90
2019-03-20T23:10:01.753Z,99.90
2019-03-20T23:12:30.272Z,99.90
2019-03-20T23:14:59.014Z,99.90
2019-03-20T23:17:27.484Z,99.90
2019-03-20T23:19:56.184Z,99.90
2019-03-20T23:22:24.989Z,99.90
2019-03-20T23:24:53.886Z,99.90
2019-03-20T23:27:26.767Z,99.90
2019-03-20T23:29:55.560Z,99.90
2019-03-20T23:32:24.015Z,99.90
2019-03-20T23:34:52.483Z,99.90
2019-03-20T23:37:20.935Z,99.90
2019-03-20T23:39:49.707Z,99.90
2019-03-20T23:42:18.171Z,99.90
2019-03-20T23:44:46.639Z,99.90
2019-03-20T23:47:15.374Z,99.90
2019-03-20T23:49:43.918Z,99.90
2019-03-20T23:52:12.647Z,99.90
2019-03-20T23:54:45.268Z,99.90
2019-03-20T23:57:14.095Z,99.90
2019-03-20T23:59:42.914Z,99.90
